sensor_id;sensor_type;location;lat;lon;timestamp;P1;durP1;ratioP1;P2;durP2;ratioP2
54919;SDS011;63804;53.120;8.764;2022-12-29T00:00:16;7.43;;;4.35;;
54919;SDS011;63804;53.120;8.764;2022-12-29T00:02:41;7.18;;;4.28;;
54919;SDS011;63804;53.120;8.764;2022-12-29T00:05:07;8.32;;;4.10;;
54919;SDS011;63804;53.120;8.764;2022-12-29T00:07:33;7.78;;;4.50;;
54919;SDS011;63804;53.120;8.764;2022-12-29T00:09:59;7.25;;;4.05;;
54919;SDS011;63804;53.120;8.764;2022-12-29T00:12:25;6.53;;;3.88;;
54919;SDS011;63804;53.120;8.764;2022-12-29T00:15:11;7.53;;;4.05;;
54919;SDS011;63804;53.120;8.764;2022-12-29T00:17:55;7.88;;;4.15;;
54919;SDS011;63804;53.120;8.764;2022-12-29T00:20:20;6.18;;;4.10;;
54919;SDS011;63804;53.120;8.764;2022-12-29T00:23:05;6.90;;;4.15;;
54919;SDS011;63804;53.120;8.764;2022-12-29T00:25:49;6.95;;;4.50;;
54919;SDS011;63804;53.120;8.764;2022-12-29T00:31:31;6.03;;;4.10;;
54919;SDS011;63804;53.120;8.764;2022-12-29T00:34:16;7.38;;;4.20;;
54919;SDS011;63804;53.120;8.764;2022-12-29T00:37:00;7.90;;;4.55;;
54919;SDS011;63804;53.120;8.764;2022-12-29T00:39:26;8.32;;;5.10;;
54919;SDS011;63804;53.120;8.764;2022-12-29T00:42:10;8.50;;;4.80;;
54919;SDS011;63804;53.120;8.764;2022-12-29T00:44:55;7.90;;;4.78;;
54919;SDS011;63804;53.120;8.764;2022-12-29T00:47:21;8.32;;;4.90;;
54919;SDS011;63804;53.120;8.764;2022-12-29T00:49:46;9.38;;;5.65;;
54919;SDS011;63804;53.120;8.764;2022-12-29T00:52:12;9.80;;;5.70;;
54919;SDS011;63804;53.120;8.764;2022-12-29T00:54:39;9.00;;;5.88;;
54919;SDS011;63804;53.120;8.764;2022-12-29T00:57:07;10.18;;;5.03;;
54919;SDS011;63804;53.120;8.764;2022-12-29T00:59:35;9.20;;;6.07;;
54919;SDS011;63804;53.120;8.764;2022-12-29T01:02:02;8.85;;;6.05;;
54919;SDS011;63804;53.120;8.764;2022-12-29T01:04:28;11.77;;;5.70;;
54919;SDS011;63804;53.120;8.764;2022-12-29T01:06:54;9.73;;;5.90;;
54919;SDS011;63804;53.120;8.764;2022-12-29T01:09:20;8.73;;;6.22;;
54919;SDS011;63804;53.120;8.764;2022-12-29T01:12:04;7.95;;;5.70;;
54919;SDS011;63804;53.120;8.764;2022-12-29T01:14:31;9.10;;;6.05;;
54919;SDS011;63804;53.120;8.764;2022-12-29T01:16:57;8.13;;;5.47;;
54919;SDS011;63804;53.120;8.764;2022-12-29T01:19:23;8.50;;;5.68;;
54919;SDS011;63804;53.120;8.764;2022-12-29T01:21:50;9.13;;;5.53;;
54919;SDS011;63804;53.120;8.764;2022-12-29T01:24:16;7.95;;;5.32;;
54919;SDS011;63804;53.120;8.764;2022-12-29T01:26:43;7.47;;;4.95;;
54919;SDS011;63804;53.120;8.764;2022-12-29T01:29:09;8.00;;;5.03;;
54919;SDS011;63804;53.120;8.764;2022-12-29T01:31:35;9.00;;;4.85;;
54919;SDS011;63804;53.120;8.764;2022-12-29T01:34:02;8.27;;;4.93;;
54919;SDS011;63804;53.120;8.764;2022-12-29T01:36:28;7.80;;;4.60;;
54919;SDS011;63804;53.120;8.764;2022-12-29T01:38:55;5.97;;;4.28;;
54919;SDS011;63804;53.120;8.764;2022-12-29T01:41:21;6.93;;;4.55;;
54919;SDS011;63804;53.120;8.764;2022-12-29T01:43:51;6.22;;;4.30;;
54919;SDS011;63804;53.120;8.764;2022-12-29T01:46:26;6.47;;;4.60;;
54919;SDS011;63804;53.120;8.764;2022-12-29T01:49:15;7.70;;;4.60;;
54919;SDS011;63804;53.120;8.764;2022-12-29T01:54:25;8.23;;;4.38;;
54919;SDS011;63804;53.120;8.764;2022-12-29T01:56:57;5.93;;;4.00;;
54919;SDS011;63804;53.120;8.764;2022-12-29T01:59:27;7.63;;;4.40;;
54919;SDS011;63804;53.120;8.764;2022-12-29T02:01:56;8.30;;;4.20;;
54919;SDS011;63804;53.120;8.764;2022-12-29T02:04:23;5.97;;;4.32;;
54919;SDS011;63804;53.120;8.764;2022-12-29T02:06:54;8.40;;;4.30;;
54919;SDS011;63804;53.120;8.764;2022-12-29T02:09:23;8.33;;;4.40;;
54919;SDS011;63804;53.120;8.764;2022-12-29T02:11:49;6.40;;;4.50;;
54919;SDS011;63804;53.120;8.764;2022-12-29T02:14:16;8.07;;;4.63;;
54919;SDS011;63804;53.120;8.764;2022-12-29T02:16:49;7.35;;;4.43;;
54919;SDS011;63804;53.120;8.764;2022-12-29T02:22:34;6.30;;;4.22;;
54919;SDS011;63804;53.120;8.764;2022-12-29T02:25:32;6.97;;;4.40;;
54919;SDS011;63804;53.120;8.764;2022-12-29T02:36:24;5.63;;;3.92;;
54919;SDS011;63804;53.120;8.764;2022-12-29T02:42:13;6.88;;;4.28;;
54919;SDS011;63804;53.120;8.764;2022-12-29T02:44:46;6.95;;;4.50;;
54919;SDS011;63804;53.120;8.764;2022-12-29T02:52:16;6.13;;;4.32;;
54919;SDS011;63804;53.120;8.764;2022-12-29T02:54:50;5.97;;;4.25;;
54919;SDS011;63804;53.120;8.764;2022-12-29T02:59:58;6.65;;;4.38;;
54919;SDS011;63804;53.120;8.764;2022-12-29T03:11:06;6.22;;;4.55;;
54919;SDS011;63804;53.120;8.764;2022-12-29T03:13:54;8.90;;;4.57;;
54919;SDS011;63804;53.120;8.764;2022-12-29T03:16:53;6.03;;;3.97;;
54919;SDS011;63804;53.120;8.764;2022-12-29T03:19:32;9.95;;;4.13;;
54919;SDS011;63804;53.120;8.764;2022-12-29T03:22:06;4.97;;;4.00;;
54919;SDS011;63804;53.120;8.764;2022-12-29T03:24:54;6.35;;;4.05;;
54919;SDS011;63804;53.120;8.764;2022-12-29T03:27:38;7.13;;;3.65;;
54919;SDS011;63804;53.120;8.764;2022-12-29T03:30:09;4.45;;;3.05;;
54919;SDS011;63804;53.120;8.764;2022-12-29T03:32:44;4.68;;;2.80;;
54919;SDS011;63804;53.120;8.764;2022-12-29T03:35:13;3.83;;;2.47;;
54919;SDS011;63804;53.120;8.764;2022-12-29T03:37:44;4.07;;;2.50;;
54919;SDS011;63804;53.120;8.764;2022-12-29T03:40:17;4.07;;;2.00;;
54919;SDS011;63804;53.120;8.764;2022-12-29T03:42:46;3.05;;;2.30;;
54919;SDS011;63804;53.120;8.764;2022-12-29T03:45:13;3.83;;;2.00;;
54919;SDS011;63804;53.120;8.764;2022-12-29T03:47:38;4.15;;;2.10;;
54919;SDS011;63804;53.120;8.764;2022-12-29T03:50:05;2.88;;;2.00;;
54919;SDS011;63804;53.120;8.764;2022-12-29T03:52:34;4.60;;;2.60;;
54919;SDS011;63804;53.120;8.764;2022-12-29T03:55:00;2.30;;;2.00;;
54919;SDS011;63804;53.120;8.764;2022-12-29T03:57:25;3.80;;;2.60;;
54919;SDS011;63804;53.120;8.764;2022-12-29T03:59:51;4.50;;;2.58;;
54919;SDS011;63804;53.120;8.764;2022-12-29T04:02:17;3.53;;;2.40;;
54919;SDS011;63804;53.120;8.764;2022-12-29T04:04:43;2.88;;;2.40;;
54919;SDS011;63804;53.120;8.764;2022-12-29T04:07:08;3.10;;;2.45;;
54919;SDS011;63804;53.120;8.764;2022-12-29T04:09:34;3.15;;;2.35;;
54919;SDS011;63804;53.120;8.764;2022-12-29T04:12:00;4.53;;;2.50;;
54919;SDS011;63804;53.120;8.764;2022-12-29T04:14:26;3.22;;;2.53;;
54919;SDS011;63804;53.120;8.764;2022-12-29T04:16:51;4.22;;;2.60;;
54919;SDS011;63804;53.120;8.764;2022-12-29T04:19:17;5.53;;;2.83;;
54919;SDS011;63804;53.120;8.764;2022-12-29T04:21:43;5.10;;;2.80;;
54919;SDS011;63804;53.120;8.764;2022-12-29T04:24:08;4.10;;;2.72;;
54919;SDS011;63804;53.120;8.764;2022-12-29T04:26:34;4.32;;;2.90;;
54919;SDS011;63804;53.120;8.764;2022-12-29T04:29:00;3.65;;;2.75;;
54919;SDS011;63804;53.120;8.764;2022-12-29T04:31:26;4.63;;;3.00;;
54919;SDS011;63804;53.120;8.764;2022-12-29T04:33:51;5.47;;;3.20;;
54919;SDS011;63804;53.120;8.764;2022-12-29T04:36:17;5.15;;;2.90;;
54919;SDS011;63804;53.120;8.764;2022-12-29T04:38:43;4.07;;;2.85;;
54919;SDS011;63804;53.120;8.764;2022-12-29T04:41:08;4.95;;;2.95;;
54919;SDS011;63804;53.120;8.764;2022-12-29T04:43:34;4.88;;;3.05;;
54919;SDS011;63804;53.120;8.764;2022-12-29T04:46:00;4.60;;;2.67;;
54919;SDS011;63804;53.120;8.764;2022-12-29T04:48:26;5.18;;;2.95;;
54919;SDS011;63804;53.120;8.764;2022-12-29T04:50:51;5.65;;;2.80;;
54919;SDS011;63804;53.120;8.764;2022-12-29T04:53:17;5.43;;;2.88;;
54919;SDS011;63804;53.120;8.764;2022-12-29T04:55:43;7.72;;;2.70;;
54919;SDS011;63804;53.120;8.764;2022-12-29T04:58:09;3.88;;;2.40;;
54919;SDS011;63804;53.120;8.764;2022-12-29T05:00:35;3.25;;;2.50;;
54919;SDS011;63804;53.120;8.764;2022-12-29T05:03:01;6.07;;;2.50;;
54919;SDS011;63804;53.120;8.764;2022-12-29T05:05:26;4.28;;;2.50;;
54919;SDS011;63804;53.120;8.764;2022-12-29T05:07:52;4.97;;;2.30;;
54919;SDS011;63804;53.120;8.764;2022-12-29T05:10:18;3.60;;;2.10;;
54919;SDS011;63804;53.120;8.764;2022-12-29T05:12:44;4.45;;;2.35;;
54919;SDS011;63804;53.120;8.764;2022-12-29T05:15:10;3.88;;;2.03;;
54919;SDS011;63804;53.120;8.764;2022-12-29T05:17:36;4.07;;;2.45;;
54919;SDS011;63804;53.120;8.764;2022-12-29T05:20:08;4.22;;;2.30;;
54919;SDS011;63804;53.120;8.764;2022-12-29T05:22:35;4.13;;;2.40;;
54919;SDS011;63804;53.120;8.764;2022-12-29T05:25:01;4.63;;;2.50;;
54919;SDS011;63804;53.120;8.764;2022-12-29T05:27:27;3.50;;;1.98;;
54919;SDS011;63804;53.120;8.764;2022-12-29T05:29:53;4.00;;;2.28;;
54919;SDS011;63804;53.120;8.764;2022-12-29T05:32:18;4.93;;;2.10;;
54919;SDS011;63804;53.120;8.764;2022-12-29T05:34:44;2.50;;;1.88;;
54919;SDS011;63804;53.120;8.764;2022-12-29T05:37:10;2.85;;;1.60;;
54919;SDS011;63804;53.120;8.764;2022-12-29T05:39:43;3.00;;;1.30;;
54919;SDS011;63804;53.120;8.764;2022-12-29T05:42:08;1.80;;;1.20;;
54919;SDS011;63804;53.120;8.764;2022-12-29T05:44:34;2.97;;;1.20;;
54919;SDS011;63804;53.120;8.764;2022-12-29T05:47:00;3.53;;;1.25;;
54919;SDS011;63804;53.120;8.764;2022-12-29T05:49:26;1.98;;;1.00;;
54919;SDS011;63804;53.120;8.764;2022-12-29T05:51:51;2.92;;;1.30;;
54919;SDS011;63804;53.120;8.764;2022-12-29T05:54:17;3.08;;;1.20;;
54919;SDS011;63804;53.120;8.764;2022-12-29T05:56:43;3.95;;;1.30;;
54919;SDS011;63804;53.120;8.764;2022-12-29T05:59:08;3.78;;;1.45;;
54919;SDS011;63804;53.120;8.764;2022-12-29T06:01:34;2.67;;;1.27;;
54919;SDS011;63804;53.120;8.764;2022-12-29T06:04:00;4.07;;;1.40;;
54919;SDS011;63804;53.120;8.764;2022-12-29T06:06:26;4.00;;;1.85;;
54919;SDS011;63804;53.120;8.764;2022-12-29T06:08:51;4.53;;;1.92;;
54919;SDS011;63804;53.120;8.764;2022-12-29T06:11:17;3.17;;;2.10;;
54919;SDS011;63804;53.120;8.764;2022-12-29T06:13:43;2.78;;;2.10;;
54919;SDS011;63804;53.120;8.764;2022-12-29T06:16:09;3.25;;;2.10;;
54919;SDS011;63804;53.120;8.764;2022-12-29T06:18:34;4.85;;;2.50;;
54919;SDS011;63804;53.120;8.764;2022-12-29T06:21:01;2.72;;;1.95;;
54919;SDS011;63804;53.120;8.764;2022-12-29T06:23:28;4.30;;;2.13;;
54919;SDS011;63804;53.120;8.764;2022-12-29T06:25:53;5.45;;;2.20;;
54919;SDS011;63804;53.120;8.764;2022-12-29T06:28:20;4.15;;;1.98;;
54919;SDS011;63804;53.120;8.764;2022-12-29T06:30:46;4.78;;;2.00;;
54919;SDS011;63804;53.120;8.764;2022-12-29T06:33:13;3.47;;;1.92;;
54919;SDS011;63804;53.120;8.764;2022-12-29T06:35:39;4.75;;;2.40;;
54919;SDS011;63804;53.120;8.764;2022-12-29T06:38:05;5.70;;;2.35;;
54919;SDS011;63804;53.120;8.764;2022-12-29T06:40:31;5.45;;;2.20;;
54919;SDS011;63804;53.120;8.764;2022-12-29T06:42:57;4.97;;;1.80;;
54919;SDS011;63804;53.120;8.764;2022-12-29T06:45:23;5.30;;;1.98;;
54919;SDS011;63804;53.120;8.764;2022-12-29T06:47:49;6.22;;;2.22;;
54919;SDS011;63804;53.120;8.764;2022-12-29T06:50:15;5.32;;;2.20;;
54919;SDS011;63804;53.120;8.764;2022-12-29T06:52:41;4.45;;;2.03;;
54919;SDS011;63804;53.120;8.764;2022-12-29T06:55:07;5.18;;;2.30;;
54919;SDS011;63804;53.120;8.764;2022-12-29T06:57:33;3.80;;;2.00;;
54919;SDS011;63804;53.120;8.764;2022-12-29T06:59:59;3.35;;;1.77;;
54919;SDS011;63804;53.120;8.764;2022-12-29T07:02:24;3.65;;;1.63;;
54919;SDS011;63804;53.120;8.764;2022-12-29T07:04:51;4.82;;;1.73;;
54919;SDS011;63804;53.120;8.764;2022-12-29T07:07:18;2.22;;;1.40;;
54919;SDS011;63804;53.120;8.764;2022-12-29T07:09:44;3.80;;;1.58;;
54919;SDS011;63804;53.120;8.764;2022-12-29T07:12:10;4.25;;;1.52;;
54919;SDS011;63804;53.120;8.764;2022-12-29T07:14:36;4.90;;;1.67;;
54919;SDS011;63804;53.120;8.764;2022-12-29T07:17:02;4.30;;;1.60;;
54919;SDS011;63804;53.120;8.764;2022-12-29T07:19:30;3.58;;;1.60;;
54919;SDS011;63804;53.120;8.764;2022-12-29T07:21:56;5.55;;;1.85;;
54919;SDS011;63804;53.120;8.764;2022-12-29T07:24:22;3.95;;;1.80;;
54919;SDS011;63804;53.120;8.764;2022-12-29T07:26:48;4.45;;;1.90;;
54919;SDS011;63804;53.120;8.764;2022-12-29T07:29:14;3.67;;;1.70;;
54919;SDS011;63804;53.120;8.764;2022-12-29T07:31:39;6.07;;;2.00;;
54919;SDS011;63804;53.120;8.764;2022-12-29T07:34:05;3.53;;;1.50;;
54919;SDS011;63804;53.120;8.764;2022-12-29T07:36:31;4.00;;;1.45;;
54919;SDS011;63804;53.120;8.764;2022-12-29T07:38:56;6.25;;;2.63;;
54919;SDS011;63804;53.120;8.764;2022-12-29T07:41:22;4.95;;;1.75;;
54919;SDS011;63804;53.120;8.764;2022-12-29T07:43:48;5.78;;;1.48;;
54919;SDS011;63804;53.120;8.764;2022-12-29T07:46:16;4.35;;;1.40;;
54919;SDS011;63804;53.120;8.764;2022-12-29T07:48:42;3.58;;;1.20;;
54919;SDS011;63804;53.120;8.764;2022-12-29T07:51:08;4.32;;;1.58;;
54919;SDS011;63804;53.120;8.764;2022-12-29T07:53:33;5.78;;;1.40;;
54919;SDS011;63804;53.120;8.764;2022-12-29T07:55:59;3.30;;;1.15;;
54919;SDS011;63804;53.120;8.764;2022-12-29T07:58:25;3.30;;;1.40;;
54919;SDS011;63804;53.120;8.764;2022-12-29T08:00:56;4.35;;;1.30;;
54919;SDS011;63804;53.120;8.764;2022-12-29T08:03:23;5.85;;;1.17;;
54919;SDS011;63804;53.120;8.764;2022-12-29T08:05:50;5.88;;;1.20;;
54919;SDS011;63804;53.120;8.764;2022-12-29T08:08:16;7.78;;;1.20;;
54919;SDS011;63804;53.120;8.764;2022-12-29T08:10:42;5.45;;;1.30;;
54919;SDS011;63804;53.120;8.764;2022-12-29T08:13:08;8.90;;;1.85;;
54919;SDS011;63804;53.120;8.764;2022-12-29T08:15:34;5.35;;;1.20;;
54919;SDS011;63804;53.120;8.764;2022-12-29T08:18:00;6.10;;;1.48;;
54919;SDS011;63804;53.120;8.764;2022-12-29T08:20:26;6.97;;;1.25;;
54919;SDS011;63804;53.120;8.764;2022-12-29T08:22:51;6.93;;;1.25;;
54919;SDS011;63804;53.120;8.764;2022-12-29T08:25:17;6.57;;;1.30;;
54919;SDS011;63804;53.120;8.764;2022-12-29T08:27:44;4.35;;;1.05;;
54919;SDS011;63804;53.120;8.764;2022-12-29T08:30:10;7.93;;;1.30;;
54919;SDS011;63804;53.120;8.764;2022-12-29T08:32:36;8.18;;;1.52;;
54919;SDS011;63804;53.120;8.764;2022-12-29T08:35:02;6.47;;;1.52;;
54919;SDS011;63804;53.120;8.764;2022-12-29T08:37:28;8.98;;;1.38;;
54919;SDS011;63804;53.120;8.764;2022-12-29T08:39:54;10.68;;;1.73;;
54919;SDS011;63804;53.120;8.764;2022-12-29T08:42:19;7.20;;;1.42;;
54919;SDS011;63804;53.120;8.764;2022-12-29T08:44:45;9.13;;;1.20;;
54919;SDS011;63804;53.120;8.764;2022-12-29T08:47:11;10.25;;;1.27;;
54919;SDS011;63804;53.120;8.764;2022-12-29T08:49:37;3.47;;;1.25;;
54919;SDS011;63804;53.120;8.764;2022-12-29T08:52:03;5.28;;;1.23;;
54919;SDS011;63804;53.120;8.764;2022-12-29T08:54:29;7.63;;;1.42;;
54919;SDS011;63804;53.120;8.764;2022-12-29T08:56:55;3.70;;;1.20;;
54919;SDS011;63804;53.120;8.764;2022-12-29T08:59:20;8.63;;;1.75;;
54919;SDS011;63804;53.120;8.764;2022-12-29T09:01:55;6.90;;;1.40;;
54919;SDS011;63804;53.120;8.764;2022-12-29T09:04:21;6.82;;;1.48;;
54919;SDS011;63804;53.120;8.764;2022-12-29T09:06:48;7.60;;;1.50;;
54919;SDS011;63804;53.120;8.764;2022-12-29T09:09:14;5.03;;;1.42;;
54919;SDS011;63804;53.120;8.764;2022-12-29T09:11:40;9.40;;;1.98;;
54919;SDS011;63804;53.120;8.764;2022-12-29T09:14:07;9.60;;;1.60;;
54919;SDS011;63804;53.120;8.764;2022-12-29T09:16:33;8.85;;;2.45;;
54919;SDS011;63804;53.120;8.764;2022-12-29T09:18:59;6.53;;;1.20;;
54919;SDS011;63804;53.120;8.764;2022-12-29T09:21:25;8.57;;;1.88;;
54919;SDS011;63804;53.120;8.764;2022-12-29T09:23:51;8.35;;;1.50;;
54919;SDS011;63804;53.120;8.764;2022-12-29T09:26:17;8.95;;;1.83;;
54919;SDS011;63804;53.120;8.764;2022-12-29T09:28:55;5.68;;;1.30;;
54919;SDS011;63804;53.120;8.764;2022-12-29T09:31:22;6.90;;;1.40;;
54919;SDS011;63804;53.120;8.764;2022-12-29T09:33:47;8.70;;;1.38;;
54919;SDS011;63804;53.120;8.764;2022-12-29T09:36:13;6.80;;;1.38;;
54919;SDS011;63804;53.120;8.764;2022-12-29T09:38:39;8.45;;;1.75;;
54919;SDS011;63804;53.120;8.764;2022-12-29T09:41:16;6.18;;;1.55;;
54919;SDS011;63804;53.120;8.764;2022-12-29T09:44:03;10.57;;;2.30;;
54919;SDS011;63804;53.120;8.764;2022-12-29T09:49:07;7.43;;;1.58;;
54919;SDS011;63804;53.120;8.764;2022-12-29T09:51:34;6.75;;;1.50;;
54919;SDS011;63804;53.120;8.764;2022-12-29T09:54:46;9.48;;;1.70;;
54919;SDS011;63804;53.120;8.764;2022-12-29T09:57:15;8.20;;;2.08;;
54919;SDS011;63804;53.120;8.764;2022-12-29T09:59:46;11.60;;;1.98;;
54919;SDS011;63804;53.120;8.764;2022-12-29T10:02:20;8.60;;;1.85;;
54919;SDS011;63804;53.120;8.764;2022-12-29T10:04:55;10.48;;;2.33;;
54919;SDS011;63804;53.120;8.764;2022-12-29T10:10:30;7.50;;;1.90;;
54919;SDS011;63804;53.120;8.764;2022-12-29T10:13:26;8.85;;;2.10;;
54919;SDS011;63804;53.120;8.764;2022-12-29T10:24:55;13.35;;;2.70;;
54919;SDS011;63804;53.120;8.764;2022-12-29T10:27:22;5.47;;;1.30;;
54919;SDS011;63804;53.120;8.764;2022-12-29T10:29:53;7.38;;;1.10;;
54919;SDS011;63804;53.120;8.764;2022-12-29T10:32:24;6.25;;;1.33;;
54919;SDS011;63804;53.120;8.764;2022-12-29T10:35:03;4.13;;;0.80;;
54919;SDS011;63804;53.120;8.764;2022-12-29T10:40:31;3.72;;;0.85;;
54919;SDS011;63804;53.120;8.764;2022-12-29T10:43:06;4.68;;;1.10;;
54919;SDS011;63804;53.120;8.764;2022-12-29T10:46:02;3.75;;;0.93;;
54919;SDS011;63804;53.120;8.764;2022-12-29T10:48:34;2.58;;;1.00;;
54919;SDS011;63804;53.120;8.764;2022-12-29T10:51:07;4.35;;;1.33;;
54919;SDS011;63804;53.120;8.764;2022-12-29T10:53:41;3.22;;;1.05;;
54919;SDS011;63804;53.120;8.764;2022-12-29T10:56:17;7.18;;;1.10;;
54919;SDS011;63804;53.120;8.764;2022-12-29T10:58:58;3.17;;;0.68;;
54919;SDS011;63804;53.120;8.764;2022-12-29T11:01:32;5.30;;;1.05;;
54919;SDS011;63804;53.120;8.764;2022-12-29T11:06:52;7.13;;;1.40;;
54919;SDS011;63804;53.120;8.764;2022-12-29T11:09:24;4.05;;;0.88;;
54919;SDS011;63804;53.120;8.764;2022-12-29T11:11:53;6.88;;;1.58;;
54919;SDS011;63804;53.120;8.764;2022-12-29T11:14:20;8.85;;;1.60;;
54919;SDS011;63804;53.120;8.764;2022-12-29T11:16:58;8.23;;;1.80;;
54919;SDS011;63804;53.120;8.764;2022-12-29T11:19:30;8.05;;;1.98;;
54919;SDS011;63804;53.120;8.764;2022-12-29T11:22:13;12.00;;;1.92;;
54919;SDS011;63804;53.120;8.764;2022-12-29T11:24:51;8.02;;;2.03;;
54919;SDS011;63804;53.120;8.764;2022-12-29T11:29:48;6.82;;;1.67;;
54919;SDS011;63804;53.120;8.764;2022-12-29T11:32:19;8.45;;;1.70;;
54919;SDS011;63804;53.120;8.764;2022-12-29T11:34:49;7.65;;;2.10;;
54919;SDS011;63804;53.120;8.764;2022-12-29T11:37:21;8.98;;;1.92;;
54919;SDS011;63804;53.120;8.764;2022-12-29T11:40:16;10.38;;;1.98;;
54919;SDS011;63804;53.120;8.764;2022-12-29T11:42:50;10.25;;;1.70;;
54919;SDS011;63804;53.120;8.764;2022-12-29T11:45:22;8.85;;;1.75;;
54919;SDS011;63804;53.120;8.764;2022-12-29T11:47:55;10.23;;;1.60;;
54919;SDS011;63804;53.120;8.764;2022-12-29T11:50:24;12.27;;;2.30;;
54919;SDS011;63804;53.120;8.764;2022-12-29T11:53:03;11.65;;;3.47;;
54919;SDS011;63804;53.120;8.764;2022-12-29T11:55:41;9.23;;;1.65;;
54919;SDS011;63804;53.120;8.764;2022-12-29T11:58:17;8.75;;;1.52;;
54919;SDS011;63804;53.120;8.764;2022-12-29T12:00:43;9.48;;;1.60;;
54919;SDS011;63804;53.120;8.764;2022-12-29T12:05:47;7.95;;;1.70;;
54919;SDS011;63804;53.120;8.764;2022-12-29T12:08:38;8.18;;;1.77;;
54919;SDS011;63804;53.120;8.764;2022-12-29T12:14:11;8.27;;;1.63;;
54919;SDS011;63804;53.120;8.764;2022-12-29T12:16:44;6.55;;;1.23;;
54919;SDS011;63804;53.120;8.764;2022-12-29T12:20:18;8.68;;;1.40;;
54919;SDS011;63804;53.120;8.764;2022-12-29T12:22:21;7.55;;;1.52;;
54919;SDS011;63804;53.120;8.764;2022-12-29T12:25:12;8.15;;;1.52;;
54919;SDS011;63804;53.120;8.764;2022-12-29T12:27:57;8.13;;;1.40;;
54919;SDS011;63804;53.120;8.764;2022-12-29T12:30:24;6.18;;;1.02;;
54919;SDS011;63804;53.120;8.764;2022-12-29T12:33:02;9.63;;;1.48;;
54919;SDS011;63804;53.120;8.764;2022-12-29T12:38:37;5.88;;;1.30;;
54919;SDS011;63804;53.120;8.764;2022-12-29T12:41:20;6.88;;;1.25;;
54919;SDS011;63804;53.120;8.764;2022-12-29T13:00:56;4.78;;;1.05;;
54919;SDS011;63804;53.120;8.764;2022-12-29T13:03:57;7.18;;;1.27;;
54919;SDS011;63804;53.120;8.764;2022-12-29T13:09:42;5.68;;;0.90;;
54919;SDS011;63804;53.120;8.764;2022-12-29T13:17:42;5.05;;;1.20;;
54919;SDS011;63804;53.120;8.764;2022-12-29T13:20:45;6.75;;;1.08;;
54919;SDS011;63804;53.120;8.764;2022-12-29T13:23:34;6.03;;;1.13;;
54919;SDS011;63804;53.120;8.764;2022-12-29T13:28:55;4.75;;;1.20;;
54919;SDS011;63804;53.120;8.764;2022-12-29T13:31:38;7.90;;;1.38;;
54919;SDS011;63804;53.120;8.764;2022-12-29T13:34:39;5.57;;;1.10;;
54919;SDS011;63804;53.120;8.764;2022-12-29T13:37:29;5.38;;;1.30;;
54919;SDS011;63804;53.120;8.764;2022-12-29T13:40:10;5.68;;;1.50;;
54919;SDS011;63804;53.120;8.764;2022-12-29T13:42:40;5.88;;;1.15;;
54919;SDS011;63804;53.120;8.764;2022-12-29T13:45:10;5.25;;;1.25;;
54919;SDS011;63804;53.120;8.764;2022-12-29T13:47:43;4.20;;;1.08;;
54919;SDS011;63804;53.120;8.764;2022-12-29T13:50:17;5.78;;;1.10;;
54919;SDS011;63804;53.120;8.764;2022-12-29T13:55:40;7.68;;;1.35;;
54919;SDS011;63804;53.120;8.764;2022-12-29T13:58:14;6.47;;;1.50;;
54919;SDS011;63804;53.120;8.764;2022-12-29T14:00:59;7.78;;;1.67;;
54919;SDS011;63804;53.120;8.764;2022-12-29T14:06:05;5.32;;;1.30;;
54919;SDS011;63804;53.120;8.764;2022-12-29T14:08:39;9.05;;;1.70;;
54919;SDS011;63804;53.120;8.764;2022-12-29T14:11:09;5.97;;;1.20;;
54919;SDS011;63804;53.120;8.764;2022-12-29T14:13:37;8.30;;;1.63;;
54919;SDS011;63804;53.120;8.764;2022-12-29T14:16:05;5.43;;;1.27;;
54919;SDS011;63804;53.120;8.764;2022-12-29T14:18:32;7.50;;;1.67;;
54919;SDS011;63804;53.120;8.764;2022-12-29T14:23:44;7.60;;;1.42;;
54919;SDS011;63804;53.120;8.764;2022-12-29T14:29:15;5.68;;;1.42;;
54919;SDS011;63804;53.120;8.764;2022-12-29T14:31:41;7.10;;;1.58;;
54919;SDS011;63804;53.120;8.764;2022-12-29T14:36:39;7.00;;;1.80;;
54919;SDS011;63804;53.120;8.764;2022-12-29T14:39:28;8.57;;;1.67;;
54919;SDS011;63804;53.120;8.764;2022-12-29T14:44:46;8.60;;;1.73;;
54919;SDS011;63804;53.120;8.764;2022-12-29T14:47:32;7.40;;;1.67;;
54919;SDS011;63804;53.120;8.764;2022-12-29T14:50:05;7.97;;;1.40;;
54919;SDS011;63804;53.120;8.764;2022-12-29T14:52:56;7.15;;;1.63;;
54919;SDS011;63804;53.120;8.764;2022-12-29T14:55:37;6.72;;;1.50;;
54919;SDS011;63804;53.120;8.764;2022-12-29T15:00:53;9.48;;;1.63;;
54919;SDS011;63804;53.120;8.764;2022-12-29T15:03:23;6.10;;;1.80;;
54919;SDS011;63804;53.120;8.764;2022-12-29T15:06:09;16.85;;;1.70;;
54919;SDS011;63804;53.120;8.764;2022-12-29T15:08:37;5.20;;;1.42;;
54919;SDS011;63804;53.120;8.764;2022-12-29T15:11:17;10.02;;;1.80;;
54919;SDS011;63804;53.120;8.764;2022-12-29T15:13:47;8.25;;;1.90;;
54919;SDS011;63804;53.120;8.764;2022-12-29T15:16:24;8.48;;;1.98;;
54919;SDS011;63804;53.120;8.764;2022-12-29T15:18:50;6.63;;;1.60;;
54919;SDS011;63804;53.120;8.764;2022-12-29T15:21:16;8.18;;;1.80;;
54919;SDS011;63804;53.120;8.764;2022-12-29T15:23:43;15.10;;;2.83;;
54919;SDS011;63804;53.120;8.764;2022-12-29T15:26:10;7.90;;;1.83;;
54919;SDS011;63804;53.120;8.764;2022-12-29T15:28:41;7.82;;;2.05;;
54919;SDS011;63804;53.120;8.764;2022-12-29T15:31:13;11.38;;;2.78;;
54919;SDS011;63804;53.120;8.764;2022-12-29T15:33:47;9.15;;;2.38;;
54919;SDS011;63804;53.120;8.764;2022-12-29T15:38:49;9.98;;;2.10;;
54919;SDS011;63804;53.120;8.764;2022-12-29T15:46:22;7.80;;;1.63;;
54919;SDS011;63804;53.120;8.764;2022-12-29T15:48:48;7.82;;;1.67;;
54919;SDS011;63804;53.120;8.764;2022-12-29T15:51:20;9.75;;;2.28;;
54919;SDS011;63804;53.120;8.764;2022-12-29T15:53:53;9.38;;;1.85;;
54919;SDS011;63804;53.120;8.764;2022-12-29T15:56:19;10.50;;;1.95;;
54919;SDS011;63804;53.120;8.764;2022-12-29T15:58:47;11.70;;;2.72;;
54919;SDS011;63804;53.120;8.764;2022-12-29T16:01:36;10.02;;;2.78;;
54919;SDS011;63804;53.120;8.764;2022-12-29T16:04:06;9.13;;;2.22;;
54919;SDS011;63804;53.120;8.764;2022-12-29T16:06:33;9.63;;;3.10;;
54919;SDS011;63804;53.120;8.764;2022-12-29T16:09:02;10.55;;;2.15;;
54919;SDS011;63804;53.120;8.764;2022-12-29T16:11:34;13.02;;;2.40;;
54919;SDS011;63804;53.120;8.764;2022-12-29T16:14:06;10.45;;;2.83;;
54919;SDS011;63804;53.120;8.764;2022-12-29T16:16:36;11.90;;;3.05;;
54919;SDS011;63804;53.120;8.764;2022-12-29T16:19:17;9.10;;;2.45;;
54919;SDS011;63804;53.120;8.764;2022-12-29T16:21:47;10.18;;;2.97;;
54919;SDS011;63804;53.120;8.764;2022-12-29T16:24:17;9.13;;;2.75;;
54919;SDS011;63804;53.120;8.764;2022-12-29T16:27:20;11.25;;;3.30;;
54919;SDS011;63804;53.120;8.764;2022-12-29T16:29:52;14.93;;;5.00;;
54919;SDS011;63804;53.120;8.764;2022-12-29T16:32:25;16.15;;;5.68;;
54919;SDS011;63804;53.120;8.764;2022-12-29T16:35:02;17.63;;;5.32;;
54919;SDS011;63804;53.120;8.764;2022-12-29T16:37:43;11.02;;;3.40;;
54919;SDS011;63804;53.120;8.764;2022-12-29T16:42:54;12.00;;;3.38;;
54919;SDS011;63804;53.120;8.764;2022-12-29T16:50:33;13.05;;;4.07;;
54919;SDS011;63804;53.120;8.764;2022-12-29T16:53:00;13.18;;;3.75;;
54919;SDS011;63804;53.120;8.764;2022-12-29T16:55:28;12.32;;;2.90;;
54919;SDS011;63804;53.120;8.764;2022-12-29T16:57:54;10.73;;;3.40;;
54919;SDS011;63804;53.120;8.764;2022-12-29T17:00:24;9.55;;;2.55;;
54919;SDS011;63804;53.120;8.764;2022-12-29T17:02:53;11.75;;;2.97;;
54919;SDS011;63804;53.120;8.764;2022-12-29T17:05:22;13.85;;;4.55;;
54919;SDS011;63804;53.120;8.764;2022-12-29T17:07:48;15.40;;;4.95;;
54919;SDS011;63804;53.120;8.764;2022-12-29T17:10:14;15.13;;;4.97;;
54919;SDS011;63804;53.120;8.764;2022-12-29T17:12:40;16.90;;;5.05;;
54919;SDS011;63804;53.120;8.764;2022-12-29T17:15:13;13.20;;;3.83;;
54919;SDS011;63804;53.120;8.764;2022-12-29T17:17:53;17.88;;;4.20;;